createdAt,value
2019-01-14T00:01:48.533Z,5.90
2019-01-14T00:04:14.657Z,5.90
2019-01-14T00:06:40.832Z,5.90
2019-01-14T00:09:07.393Z,5.90
2019-01-14T00:11:33.521Z,5.90
2019-01-14T00:13:59.596Z,6.00
2019-01-14T00:16:25.917Z,5.90
2019-01-14T00:18:52.076Z,5.90
2019-01-14T00:21:18.241Z,5.90
2019-01-14T00:23:44.335Z,5.90
2019-01-14T00:26:10.937Z,5.90
2019-01-14T00:28:37.242Z,5.90
2019-01-14T00:31:03.432Z,5.90
2019-01-14T00:33:29.575Z,5.90
2019-01-14T00:35:55.680Z,5.90
2019-01-14T00:38:21.896Z,5.90
2019-01-14T00:40:47.968Z,5.80
2019-01-14T00:43:14.307Z,5.80
2019-01-14T00:45:40.440Z,5.90
2019-01-14T00:48:06.583Z,5.80
2019-01-14T00:50:32.686Z,5.90
2019-01-14T00:52:58.952Z,5.90
2019-01-14T00:55:25.155Z,5.90
2019-01-14T00:57:51.413Z,5.90
2019-01-14T01:00:20.239Z,5.90
2019-01-14T01:02:46.766Z,5.90
2019-01-14T01:05:12.990Z,6.00
2019-01-14T01:07:39.228Z,5.90
2019-01-14T01:10:11.386Z,5.90
2019-01-14T01:12:37.834Z,5.90
2019-01-14T01:15:06.503Z,5.90
2019-01-14T01:17:32.733Z,5.90
2019-01-14T01:19:58.850Z,5.90
2019-01-14T01:22:25.040Z,5.90
2019-01-14T01:24:51.158Z,5.90
2019-01-14T01:27:17.258Z,5.90
2019-01-14T01:29:43.345Z,5.90
2019-01-14T01:32:09.468Z,5.90
2019-01-14T01:34:35.859Z,5.90
2019-01-14T01:37:02.114Z,5.90
2019-01-14T01:39:28.348Z,5.90
2019-01-14T01:41:54.431Z,5.90
2019-01-14T01:44:20.656Z,5.90
2019-01-14T01:46:46.821Z,5.90
2019-01-14T01:49:12.914Z,5.90
2019-01-14T01:51:39.034Z,5.90
2019-01-14T01:54:05.266Z,5.90
2019-01-14T01:56:31.796Z,5.80
2019-01-14T01:58:58.036Z,5.80
2019-01-14T02:01:24.203Z,5.80
2019-01-14T02:03:50.310Z,5.80
2019-01-14T02:06:16.442Z,5.80
2019-01-14T02:08:42.540Z,5.80
2019-01-14T02:11:08.638Z,5.80
2019-01-14T02:13:34.780Z,5.80
2019-01-14T02:16:01.093Z,5.80
2019-01-14T02:18:27.198Z,5.80
2019-01-14T02:20:53.446Z,5.80
2019-01-14T02:23:19.656Z,5.80
2019-01-14T02:25:45.742Z,5.80
2019-01-14T02:28:11.894Z,5.80
2019-01-14T02:30:38.074Z,5.80
2019-01-14T02:33:04.200Z,5.80
2019-01-14T02:35:30.499Z,5.80
2019-01-14T02:37:56.600Z,5.80
2019-01-14T02:40:22.778Z,5.80
2019-01-14T02:42:49.013Z,5.70
2019-01-14T02:45:15.684Z,5.70
2019-01-14T02:47:42.037Z,5.80
2019-01-14T02:50:09.862Z,5.80
2019-01-14T02:52:39.730Z,5.70
2019-01-14T02:55:06.183Z,5.70
2019-01-14T02:57:32.311Z,5.70
2019-01-14T02:59:58.371Z,5.70
2019-01-14T03:02:24.481Z,5.70
2019-01-14T03:04:50.860Z,5.70
2019-01-14T03:07:17.126Z,5.80
2019-01-14T03:09:43.283Z,5.70
2019-01-14T03:12:09.393Z,5.70
2019-01-14T03:14:35.537Z,5.70
2019-01-14T03:17:01.723Z,5.70
2019-01-14T03:19:27.815Z,5.70
2019-01-14T03:21:53.905Z,5.70
2019-01-14T03:24:20.377Z,5.80
2019-01-14T03:26:46.451Z,5.80
2019-01-14T03:29:12.593Z,5.80
2019-01-14T03:31:38.716Z,5.80
2019-01-14T03:34:04.927Z,5.70
2019-01-14T03:36:31.141Z,5.70
2019-01-14T03:38:58.210Z,5.70
2019-01-14T03:41:24.567Z,5.70
2019-01-14T03:43:50.654Z,5.70
2019-01-14T03:46:16.750Z,5.60
2019-01-14T03:48:42.894Z,5.60
2019-01-14T03:51:09.228Z,5.60
2019-01-14T03:53:35.424Z,5.60
2019-01-14T03:56:01.604Z,5.50
2019-01-14T03:58:27.736Z,5.50
2019-01-14T04:00:53.832Z,5.50
2019-01-14T04:03:19.957Z,5.40
2019-01-14T04:05:46.184Z,5.40
2019-01-14T04:08:12.271Z,5.40
2019-01-14T04:10:38.505Z,5.40
2019-01-14T04:13:04.674Z,5.40
2019-01-14T04:15:30.762Z,5.40
2019-01-14T04:17:56.986Z,5.40
2019-01-14T04:20:23.067Z,5.50
2019-01-14T04:22:49.388Z,5.50
2019-01-14T04:25:16.120Z,5.50
2019-01-14T04:27:42.487Z,5.50
2019-01-14T04:30:12.402Z,5.50
2019-01-14T04:32:38.506Z,5.50
2019-01-14T04:35:07.082Z,5.50
2019-01-14T04:37:33.298Z,5.40
2019-01-14T04:39:59.532Z,5.40
2019-01-14T04:42:25.599Z,5.40
2019-01-14T04:44:51.761Z,5.40
2019-01-14T04:47:17.915Z,5.40
2019-01-14T04:49:44.122Z,5.40
2019-01-14T04:52:10.338Z,5.40
2019-01-14T04:54:36.626Z,5.40
2019-01-14T04:57:03.001Z,5.30
2019-01-14T04:59:29.100Z,5.30
2019-01-14T05:01:55.182Z,5.30
2019-01-14T05:04:21.314Z,5.30
2019-01-14T05:06:47.494Z,5.30
2019-01-14T05:09:13.668Z,5.30
2019-01-14T05:11:39.777Z,5.20
2019-01-14T05:14:05.962Z,5.20
2019-01-14T05:16:32.110Z,5.20
2019-01-14T05:18:58.248Z,5.20
2019-01-14T05:21:24.455Z,5.20
2019-01-14T05:23:50.648Z,5.20
2019-01-14T05:26:16.889Z,5.20
2019-01-14T05:28:43.231Z,5.10
2019-01-14T05:31:09.467Z,5.10
2019-01-14T05:33:35.635Z,5.10
2019-01-14T05:36:01.739Z,5.10
2019-01-14T05:38:27.827Z,5.10
2019-01-14T05:40:53.962Z,5.20
2019-01-14T05:43:20.062Z,5.10
2019-01-14T05:45:46.190Z,5.10
2019-01-14T05:48:12.278Z,5.00
2019-01-14T05:50:38.392Z,4.90
2019-01-14T05:53:04.532Z,4.70
2019-01-14T05:55:30.812Z,4.70
2019-01-14T05:57:56.982Z,4.50
2019-01-14T06:00:30.912Z,4.50
2019-01-14T06:02:57.316Z,4.50
2019-01-14T06:05:23.450Z,4.40
2019-01-14T06:07:49.772Z,4.40
2019-01-14T06:10:15.869Z,4.40
2019-01-14T06:12:41.947Z,4.40
2019-01-14T06:15:13.020Z,4.30
2019-01-14T06:17:39.396Z,4.30
2019-01-14T06:20:09.450Z,4.20
2019-01-14T06:22:35.723Z,4.20
2019-01-14T06:25:04.220Z,4.20
2019-01-14T06:27:30.301Z,4.20
2019-01-14T06:29:56.437Z,4.10
2019-01-14T06:32:22.666Z,4.10
2019-01-14T06:34:48.853Z,4.10
2019-01-14T06:37:15.033Z,4.10
2019-01-14T06:39:41.196Z,4.10
2019-01-14T06:42:07.622Z,4.00
2019-01-14T06:44:34.023Z,4.00
2019-01-14T06:47:00.113Z,4.00
2019-01-14T06:49:26.265Z,4.00
2019-01-14T06:51:52.482Z,4.00
2019-01-14T06:54:18.667Z,4.00
2019-01-14T06:56:44.790Z,4.00
2019-01-14T06:59:10.985Z,4.00
2019-01-14T07:01:37.172Z,4.00
2019-01-14T07:04:03.430Z,4.10
2019-01-14T07:06:29.687Z,4.10
2019-01-14T07:08:55.889Z,4.10
2019-01-14T07:11:22.263Z,4.20
2019-01-14T07:13:48.373Z,4.20
2019-01-14T07:16:14.496Z,4.20
2019-01-14T07:18:40.721Z,4.20
2019-01-14T07:21:06.825Z,4.20
2019-01-14T07:23:32.981Z,4.20
2019-01-14T07:25:59.182Z,4.20
2019-01-14T07:28:25.433Z,4.20
2019-01-14T07:30:51.761Z,4.20
2019-01-14T07:33:17.943Z,4.20
2019-01-14T07:35:44.097Z,4.20
2019-01-14T07:38:10.297Z,4.20
2019-01-14T07:40:36.459Z,4.30
2019-01-14T07:43:02.975Z,4.30
2019-01-14T07:45:29.270Z,4.30
2019-01-14T07:47:55.373Z,4.30
2019-01-14T07:50:21.614Z,4.30
2019-01-14T07:52:48.428Z,4.30
2019-01-14T07:55:14.796Z,4.20
2019-01-14T07:57:41.265Z,4.30
2019-01-14T08:00:14.954Z,4.30
2019-01-14T08:02:41.226Z,4.40
2019-01-14T08:05:07.728Z,4.40
2019-01-14T08:07:33.906Z,4.40
2019-01-14T08:10:00.053Z,4.50
2019-01-14T08:12:26.212Z,4.60
2019-01-14T08:14:52.424Z,4.60
2019-01-14T08:17:18.544Z,4.60
2019-01-14T08:19:44.634Z,4.60
2019-01-14T08:22:10.761Z,4.60
2019-01-14T08:24:37.010Z,4.50
2019-01-14T08:27:03.198Z,4.60
2019-01-14T08:29:29.440Z,4.70
2019-01-14T08:31:55.659Z,4.70
2019-01-14T08:34:21.994Z,4.70
2019-01-14T08:36:48.130Z,4.70
2019-01-14T08:39:14.360Z,4.70
2019-01-14T08:41:42.348Z,4.70
2019-01-14T08:44:08.804Z,4.70
2019-01-14T08:46:35.077Z,4.80
2019-01-14T08:49:01.184Z,4.80
2019-01-14T08:51:27.323Z,4.90
2019-01-14T08:53:53.514Z,4.80
2019-01-14T08:56:19.636Z,4.80
2019-01-14T08:58:45.876Z,4.90
2019-01-14T09:01:11.952Z,4.90
2019-01-14T09:03:38.092Z,4.90
2019-01-14T09:06:04.398Z,4.90
2019-01-14T09:08:30.508Z,5.00
2019-01-14T09:10:56.647Z,5.00
2019-01-14T09:13:22.922Z,5.10
2019-01-14T09:15:49.170Z,5.10
2019-01-14T09:18:15.487Z,5.10
2019-01-14T09:20:41.708Z,5.20
2019-01-14T09:23:08.013Z,5.30
2019-01-14T09:25:34.213Z,5.30
2019-01-14T09:28:00.331Z,5.30
2019-01-14T09:30:26.838Z,5.40
2019-01-14T09:32:53.550Z,5.40
2019-01-14T09:35:19.629Z,5.40
2019-01-14T09:37:46.078Z,5.50
2019-01-14T09:40:20.524Z,5.40
2019-01-14T09:42:46.846Z,5.00
2019-01-14T09:45:13.150Z,4.60
2019-01-14T09:47:39.376Z,4.30
2019-01-14T09:50:08.720Z,4.10
2019-01-14T09:52:34.795Z,3.80
2019-01-14T09:55:05.533Z,3.70
2019-01-14T09:57:28.940Z,3.50
2019-01-14T09:59:55.120Z,3.50
2019-01-14T10:02:21.220Z,3.40
2019-01-14T10:04:47.372Z,3.40
2019-01-14T10:07:13.575Z,3.40
2019-01-14T10:09:39.797Z,3.30
2019-01-14T10:12:05.927Z,3.30
2019-01-14T10:14:32.135Z,3.40
2019-01-14T10:16:58.437Z,3.40
2019-01-14T10:19:24.619Z,3.30
2019-01-14T10:21:50.867Z,3.30
2019-01-14T10:24:17.073Z,3.50
2019-01-14T10:26:43.145Z,3.60
2019-01-14T10:29:09.377Z,3.70
2019-01-14T10:31:35.502Z,3.60
2019-01-14T10:34:01.607Z,3.60
2019-01-14T10:36:27.817Z,3.60
2019-01-14T10:38:53.951Z,3.70
2019-01-14T10:41:20.055Z,3.70
2019-01-14T10:43:46.175Z,3.90
2019-01-14T10:46:12.367Z,3.90
2019-01-14T10:48:38.476Z,3.90
2019-01-14T10:51:04.695Z,4.00
2019-01-14T10:53:31.830Z,4.10
2019-01-14T10:55:58.061Z,4.20
2019-01-14T10:58:24.239Z,4.10
2019-01-14T11:00:50.337Z,4.20
2019-01-14T11:03:16.769Z,4.30
2019-01-14T11:05:43.005Z,4.30
2019-01-14T11:08:09.097Z,4.30
2019-01-14T11:10:35.331Z,4.40
2019-01-14T11:13:01.452Z,4.50
2019-01-14T11:15:27.679Z,4.50
2019-01-14T11:17:54.101Z,4.40
2019-01-14T11:20:26.155Z,4.50
2019-01-14T11:22:52.436Z,4.50
2019-01-14T11:25:18.945Z,4.50
2019-01-14T11:27:45.473Z,4.50
2019-01-14T11:30:17.846Z,4.60
2019-01-14T11:32:43.912Z,4.70
2019-01-14T11:35:10.108Z,4.70
2019-01-14T11:37:36.254Z,4.80
2019-01-14T11:40:08.265Z,4.70
2019-01-14T11:42:34.435Z,4.70
2019-01-14T11:45:00.540Z,4.80
2019-01-14T11:47:26.664Z,4.80
2019-01-14T11:49:52.969Z,4.80
2019-01-14T11:52:19.089Z,4.80
2019-01-14T11:54:45.226Z,4.90
2019-01-14T11:57:11.333Z,5.00
2019-01-14T11:59:37.470Z,5.10
2019-01-14T12:02:03.948Z,5.70
2019-01-14T12:04:30.065Z,6.80
2019-01-14T12:06:56.206Z,8.40
2019-01-14T12:09:22.411Z,8.90
2019-01-14T12:11:48.554Z,8.40
2019-01-14T12:14:14.785Z,7.60
2019-01-14T12:16:40.863Z,6.90
2019-01-14T12:19:06.959Z,6.50
2019-01-14T12:21:33.043Z,6.00
2019-01-14T12:23:59.163Z,5.80
2019-01-14T12:26:25.301Z,5.70
2019-01-14T12:28:51.370Z,5.50
2019-01-14T12:31:17.465Z,5.30
2019-01-14T12:33:43.680Z,5.20
2019-01-14T12:36:09.912Z,5.20
2019-01-14T12:38:35.994Z,5.10
2019-01-14T12:41:02.246Z,5.20
2019-01-14T12:43:28.441Z,5.50
2019-01-14T12:45:54.516Z,5.70
2019-01-14T12:48:20.642Z,6.00
2019-01-14T12:50:46.855Z,6.40
2019-01-14T12:53:13.045Z,6.90
2019-01-14T12:55:39.156Z,6.90
2019-01-14T12:58:05.470Z,6.60
2019-01-14T13:00:31.644Z,6.40
2019-01-14T13:02:58.743Z,6.60
2019-01-14T13:05:25.835Z,8.00
2019-01-14T13:07:52.107Z,9.50
2019-01-14T13:10:18.313Z,9.10
2019-01-14T13:12:44.645Z,8.00
2019-01-14T13:15:16.487Z,7.00
2019-01-14T13:17:42.617Z,6.40
2019-01-14T13:20:14.902Z,5.80
2019-01-14T13:22:41.666Z,5.40
2019-01-14T13:25:08.006Z,5.10
2019-01-14T13:27:34.270Z,5.00
2019-01-14T13:30:00.428Z,5.00
2019-01-14T13:32:26.638Z,5.00
2019-01-14T13:34:52.716Z,5.10
2019-01-14T13:37:18.953Z,5.10
2019-01-14T13:39:45.044Z,5.20
2019-01-14T13:42:11.163Z,5.30
2019-01-14T13:44:37.252Z,5.40
2019-01-14T13:47:03.339Z,5.50
2019-01-14T13:49:29.426Z,5.50
2019-01-14T13:51:55.557Z,5.50
2019-01-14T13:54:21.789Z,5.40
2019-01-14T13:56:48.320Z,5.40
2019-01-14T13:59:14.525Z,5.30
2019-01-14T14:01:40.759Z,5.10
2019-01-14T14:04:06.984Z,5.00
2019-01-14T14:06:33.214Z,4.80
2019-01-14T14:08:59.429Z,4.90
2019-01-14T14:11:25.714Z,4.80
2019-01-14T14:13:51.838Z,4.90
2019-01-14T14:16:17.940Z,4.90
2019-01-14T14:18:44.075Z,4.90
2019-01-14T14:21:10.319Z,4.90
2019-01-14T14:23:36.502Z,4.80
2019-01-14T14:26:02.955Z,4.80
2019-01-14T14:28:29.139Z,4.80
2019-01-14T14:30:55.268Z,4.90
2019-01-14T14:33:21.399Z,5.00
2019-01-14T14:35:47.628Z,5.00
2019-01-14T14:38:13.877Z,5.00
2019-01-14T14:40:40.024Z,5.00
2019-01-14T14:43:06.218Z,4.90
2019-01-14T14:45:32.442Z,4.80
2019-01-14T14:47:58.622Z,4.90
2019-01-14T14:50:24.814Z,4.80
2019-01-14T14:52:51.162Z,4.80
2019-01-14T14:55:17.295Z,4.70
2019-01-14T14:57:43.731Z,4.60
2019-01-14T15:00:12.657Z,4.50
2019-01-14T15:02:38.731Z,4.50
2019-01-14T15:05:06.952Z,4.50
2019-01-14T15:07:33.018Z,4.50
2019-01-14T15:09:59.826Z,4.40
2019-01-14T15:12:26.113Z,4.50
2019-01-14T15:14:52.215Z,4.50
2019-01-14T15:17:18.435Z,4.50
2019-01-14T15:19:44.681Z,4.50
2019-01-14T15:22:10.857Z,4.40
2019-01-14T15:24:36.967Z,4.40
2019-01-14T15:27:03.096Z,4.40
2019-01-14T15:29:29.287Z,4.50
2019-01-14T15:31:55.446Z,4.40
2019-01-14T15:34:21.640Z,4.40
2019-01-14T15:36:47.799Z,4.40
2019-01-14T15:39:13.963Z,4.30
2019-01-14T15:41:40.168Z,4.30
2019-01-14T15:44:06.457Z,4.40
2019-01-14T15:46:32.569Z,4.40
2019-01-14T15:48:58.657Z,4.40
2019-01-14T15:51:24.783Z,4.30
2019-01-14T15:53:50.879Z,4.20
2019-01-14T15:56:16.982Z,4.20
2019-01-14T15:58:43.098Z,4.20
2019-01-14T16:01:09.230Z,4.20
2019-01-14T16:03:35.350Z,4.20
2019-01-14T16:06:01.545Z,4.20
2019-01-14T16:08:27.665Z,4.20
2019-01-14T16:10:54.155Z,4.20
2019-01-14T16:13:20.244Z,4.20
2019-01-14T16:15:46.376Z,4.20
2019-01-14T16:18:12.907Z,4.20
2019-01-14T16:20:39.140Z,4.20
2019-01-14T16:23:05.319Z,4.10
2019-01-14T16:25:31.387Z,4.20
2019-01-14T16:27:57.508Z,4.10
2019-01-14T16:30:23.699Z,4.10
2019-01-14T16:32:50.107Z,4.10
2019-01-14T16:35:16.231Z,4.10
2019-01-14T16:37:42.532Z,4.10
2019-01-14T16:40:08.760Z,4.00
2019-01-14T16:42:34.973Z,4.10
2019-01-14T16:45:01.303Z,4.10
2019-01-14T16:47:27.628Z,4.10
2019-01-14T16:49:53.971Z,4.00
2019-01-14T16:52:21.119Z,4.10
2019-01-14T16:54:47.310Z,4.10
2019-01-14T16:57:13.400Z,4.00
2019-01-14T16:59:39.558Z,4.00
2019-01-14T17:02:05.746Z,4.00
2019-01-14T17:04:32.182Z,4.00
2019-01-14T17:06:58.429Z,4.10
2019-01-14T17:09:24.612Z,4.10
2019-01-14T17:11:50.742Z,4.10
2019-01-14T17:14:16.812Z,4.00
2019-01-14T17:16:42.913Z,4.00
2019-01-14T17:19:09.041Z,4.00
2019-01-14T17:21:35.331Z,4.10
2019-01-14T17:24:01.576Z,4.10
2019-01-14T17:26:27.805Z,4.10
2019-01-14T17:28:54.435Z,4.00
2019-01-14T17:31:20.566Z,4.00
2019-01-14T17:33:46.753Z,3.90
2019-01-14T17:36:12.980Z,3.90
2019-01-14T17:38:39.131Z,3.90
2019-01-14T17:41:05.437Z,3.90
2019-01-14T17:43:31.658Z,3.80
2019-01-14T17:45:57.854Z,3.90
2019-01-14T17:48:23.954Z,4.10
2019-01-14T17:50:50.104Z,4.00
2019-01-14T17:53:16.296Z,4.00
2019-01-14T17:55:42.499Z,4.00
2019-01-14T17:58:08.633Z,4.20
2019-01-14T18:00:34.925Z,4.10
2019-01-14T18:03:01.045Z,4.00
2019-01-14T18:05:27.306Z,4.10
2019-01-14T18:07:53.384Z,4.00
2019-01-14T18:10:19.609Z,4.00
2019-01-14T18:12:45.850Z,3.90
2019-01-14T18:15:12.240Z,3.90
2019-01-14T18:17:38.426Z,3.90
2019-01-14T18:20:08.230Z,3.90
2019-01-14T18:22:34.587Z,3.90
2019-01-14T18:25:00.922Z,4.00
2019-01-14T18:27:27.156Z,3.90
2019-01-14T18:29:53.305Z,4.00
2019-01-14T18:32:19.484Z,3.90
2019-01-14T18:34:45.653Z,3.90
2019-01-14T18:37:11.949Z,3.90
2019-01-14T18:39:38.067Z,3.90
2019-01-14T18:42:04.168Z,3.80
2019-01-14T18:44:30.257Z,3.80
2019-01-14T18:46:56.347Z,3.80
2019-01-14T18:49:22.449Z,3.80
2019-01-14T18:51:48.571Z,3.70
2019-01-14T18:54:14.725Z,3.70
2019-01-14T18:56:41.155Z,3.70
2019-01-14T18:59:07.355Z,3.60
2019-01-14T19:01:33.451Z,3.70
2019-01-14T19:03:59.762Z,3.70
2019-01-14T19:06:25.841Z,3.60
2019-01-14T19:08:52.038Z,3.50
2019-01-14T19:11:18.301Z,3.50
2019-01-14T19:13:44.558Z,3.50
2019-01-14T19:16:10.730Z,3.40
2019-01-14T19:18:36.950Z,3.40
2019-01-14T19:21:03.026Z,3.40
2019-01-14T19:23:29.134Z,3.40
2019-01-14T19:25:55.265Z,3.30
2019-01-14T19:28:21.410Z,3.30
2019-01-14T19:30:47.647Z,3.20
2019-01-14T19:33:13.898Z,3.20
2019-01-14T19:35:40.181Z,3.20
2019-01-14T19:38:06.384Z,3.20
2019-01-14T19:40:33.071Z,3.20
2019-01-14T19:43:00.290Z,3.30
2019-01-14T19:45:26.509Z,3.30
2019-01-14T19:47:52.613Z,3.30
2019-01-14T19:50:20.431Z,3.20
2019-01-14T19:52:46.681Z,3.30
2019-01-14T19:55:13.081Z,3.20
2019-01-14T19:57:39.195Z,3.20
2019-01-14T20:00:15.325Z,3.30
2019-01-14T20:02:41.681Z,3.30
2019-01-14T20:05:08.283Z,3.20
2019-01-14T20:07:34.462Z,3.20
2019-01-14T20:10:00.997Z,3.10
2019-01-14T20:12:27.165Z,3.00
2019-01-14T20:14:53.374Z,2.90
2019-01-14T20:17:19.774Z,2.90
2019-01-14T20:19:45.919Z,2.90
2019-01-14T20:22:12.013Z,2.90
2019-01-14T20:24:38.149Z,3.00
2019-01-14T20:27:04.417Z,3.00
2019-01-14T20:29:30.596Z,3.10
2019-01-14T20:31:56.921Z,3.00
2019-01-14T20:34:23.020Z,3.00
2019-01-14T20:36:49.149Z,3.00
2019-01-14T20:39:15.315Z,3.10
2019-01-14T20:41:41.492Z,3.00
2019-01-14T20:44:09.020Z,3.00
2019-01-14T20:46:35.269Z,2.90
2019-01-14T20:49:01.530Z,2.80
2019-01-14T20:51:27.623Z,2.90
2019-01-14T20:53:53.784Z,3.00
2019-01-14T20:56:20.100Z,2.80
2019-01-14T20:58:46.219Z,2.80
2019-01-14T21:01:12.410Z,2.70
2019-01-14T21:03:38.717Z,2.80
2019-01-14T21:06:05.139Z,2.80
2019-01-14T21:08:31.381Z,2.90
2019-01-14T21:10:57.622Z,2.90
2019-01-14T21:13:23.898Z,2.90
2019-01-14T21:15:49.982Z,2.90
2019-01-14T21:18:16.142Z,2.80
2019-01-14T21:20:42.309Z,2.70
2019-01-14T21:23:08.415Z,2.80
2019-01-14T21:25:34.598Z,2.80
2019-01-14T21:28:00.955Z,2.90
2019-01-14T21:30:27.090Z,2.90
2019-01-14T21:32:53.344Z,2.80
2019-01-14T21:35:19.653Z,2.90
2019-01-14T21:37:46.852Z,2.80
2019-01-14T21:40:13.460Z,2.80
2019-01-14T21:42:39.670Z,2.80
2019-01-14T21:45:08.584Z,2.90
2019-01-14T21:47:34.754Z,2.80
2019-01-14T21:50:00.860Z,2.80
2019-01-14T21:52:27.073Z,2.90
2019-01-14T21:54:53.303Z,2.80
2019-01-14T21:57:19.470Z,2.70
2019-01-14T21:59:45.581Z,2.70
2019-01-14T22:02:11.671Z,2.70
2019-01-14T22:04:37.753Z,2.70
2019-01-14T22:07:03.842Z,2.80
2019-01-14T22:09:29.989Z,2.70
2019-01-14T22:11:56.101Z,2.80
2019-01-14T22:14:22.368Z,2.80
2019-01-14T22:16:48.538Z,2.70
2019-01-14T22:19:14.642Z,2.70
2019-01-14T22:21:40.769Z,2.70
2019-01-14T22:24:06.998Z,2.80
2019-01-14T22:26:33.189Z,2.70
2019-01-14T22:28:59.336Z,2.70
2019-01-14T22:31:25.583Z,2.70
2019-01-14T22:33:51.687Z,2.80
2019-01-14T22:36:17.827Z,2.70
2019-01-14T22:38:43.916Z,2.80
2019-01-14T22:41:10.099Z,2.90
2019-01-14T22:43:36.328Z,2.90
2019-01-14T22:46:02.618Z,2.90
2019-01-14T22:48:28.712Z,2.90
2019-01-14T22:50:54.986Z,2.90
2019-01-14T22:53:21.146Z,2.80
2019-01-14T22:55:47.458Z,2.70
2019-01-14T22:58:13.637Z,2.70
2019-01-14T23:00:54.610Z,2.70
2019-01-14T23:03:20.842Z,2.70
2019-01-14T23:05:47.030Z,2.80
2019-01-14T23:08:13.105Z,2.80
2019-01-14T23:10:39.237Z,2.70
2019-01-14T23:13:05.298Z,2.70
2019-01-14T23:15:31.469Z,2.70
2019-01-14T23:17:57.712Z,2.70
2019-01-14T23:20:23.962Z,2.80
2019-01-14T23:22:50.051Z,2.70
2019-01-14T23:25:16.185Z,2.70
2019-01-14T23:27:42.261Z,2.70
2019-01-14T23:30:10.078Z,2.80
2019-01-14T23:32:36.175Z,2.70
2019-01-14T23:35:04.201Z,2.80
2019-01-14T23:37:30.279Z,2.70
2019-01-14T23:39:56.436Z,2.70
2019-01-14T23:42:22.685Z,2.70
2019-01-14T23:44:48.896Z,2.70
2019-01-14T23:47:14.976Z,2.70
2019-01-14T23:49:41.066Z,2.70
2019-01-14T23:52:07.153Z,2.70
2019-01-14T23:54:37.125Z,2.60
2019-01-14T23:57:01.245Z,2.60
2019-01-14T23:59:27.368Z,2.60
